createdAt,value
2022-12-11T00:01:18.040Z,77.25
2022-12-11T00:03:46.871Z,76.55
2022-12-11T00:06:15.977Z,77.17
2022-12-11T00:08:43.173Z,77.25
2022-12-11T00:11:12.513Z,77.19
2022-12-11T00:13:39.424Z,77.44
2022-12-11T00:16:06.537Z,77.18
2022-12-11T00:18:33.524Z,77.32
2022-12-11T00:21:13.009Z,77.32
2022-12-11T00:23:39.935Z,77.22
2022-12-11T00:26:09.579Z,77.23
2022-12-11T00:28:36.842Z,77.17
2022-12-11T00:31:08.174Z,77.21
2022-12-11T00:33:35.303Z,77.16
2022-12-11T00:36:02.188Z,77.21
2022-12-11T00:38:29.298Z,77.23
2022-12-11T00:40:59.940Z,77.18
2022-12-11T00:43:26.998Z,76.86
2022-12-11T00:45:53.970Z,76.97
2022-12-11T00:48:21.028Z,76.90
2022-12-11T00:50:48.151Z,77.30
2022-12-11T00:53:15.541Z,77.20
2022-12-11T00:55:43.561Z,77.08
2022-12-11T00:58:11.366Z,76.92
2022-12-11T01:00:39.256Z,77.10
2022-12-11T01:03:07.109Z,77.14
2022-12-11T01:05:46.495Z,77.45
2022-12-11T01:08:18.033Z,77.60
2022-12-11T01:10:47.004Z,76.77
2022-12-11T01:13:14.208Z,77.02
2022-12-11T01:15:43.750Z,77.28
2022-12-11T01:18:12.748Z,77.15
2022-12-11T01:20:41.250Z,77.60
2022-12-11T01:23:08.540Z,77.36
2022-12-11T01:25:38.264Z,77.35
2022-12-11T01:30:33.764Z,77.00
2022-12-11T01:33:01.326Z,77.47
2022-12-11T01:35:28.686Z,77.74
2022-12-11T01:37:55.988Z,77.19
2022-12-11T01:40:23.093Z,76.90
2022-12-11T01:42:51.418Z,77.03
2022-12-11T01:45:39.802Z,77.61
2022-12-11T01:48:10.389Z,77.12
2022-12-11T01:50:45.910Z,77.42
2022-12-11T01:53:17.875Z,77.14
2022-12-11T01:55:46.909Z,76.76
2022-12-11T01:58:14.270Z,77.17
2022-12-11T02:00:41.215Z,77.00
2022-12-11T02:03:08.653Z,77.13
2022-12-11T02:05:35.671Z,77.39
2022-12-11T02:08:03.460Z,76.87
2022-12-11T02:11:06.625Z,77.63
2022-12-11T02:13:39.399Z,77.29
2022-12-11T02:16:09.086Z,77.75
2022-12-11T02:18:44.762Z,76.90
2022-12-11T02:21:21.078Z,77.28
2022-12-11T02:24:05.444Z,76.85
2022-12-11T02:26:51.293Z,77.29
2022-12-11T02:29:21.355Z,77.31
2022-12-11T02:31:55.107Z,77.68
2022-12-11T02:34:29.187Z,77.58
2022-12-11T02:36:59.872Z,77.26
2022-12-11T02:39:27.995Z,77.20
2022-12-11T02:41:55.986Z,77.18
2022-12-11T02:44:26.229Z,77.41
2022-12-11T02:46:54.260Z,77.53
2022-12-11T02:49:22.238Z,76.95
2022-12-11T02:51:49.490Z,77.53
2022-12-11T02:54:20.906Z,77.36
2022-12-11T02:56:55.065Z,77.50
2022-12-11T02:59:44.408Z,77.20
2022-12-11T03:02:13.426Z,77.49
2022-12-11T03:04:41.222Z,77.64
2022-12-11T03:07:15.953Z,77.21
2022-12-11T03:09:44.820Z,77.49
2022-12-11T03:12:16.741Z,77.65
2022-12-11T03:14:44.042Z,77.54
2022-12-11T03:17:20.373Z,77.33
2022-12-11T03:20:17.913Z,77.33
2022-12-11T03:22:56.067Z,77.29
2022-12-11T03:25:26.833Z,77.62
2022-12-11T03:28:09.649Z,77.33
2022-12-11T03:30:37.428Z,77.47
2022-12-11T03:33:12.170Z,77.55
2022-12-11T03:35:45.327Z,77.64
2022-12-11T03:38:23.208Z,77.75
2022-12-11T03:40:53.371Z,77.75
2022-12-11T03:43:21.991Z,78.04
2022-12-11T03:45:50.107Z,78.07
2022-12-11T03:48:18.112Z,78.09
2022-12-11T03:50:46.615Z,78.43
2022-12-11T03:53:13.719Z,77.93
2022-12-11T03:55:42.450Z,78.21
2022-12-11T03:58:09.423Z,78.51
2022-12-11T04:00:36.615Z,78.31
2022-12-11T04:03:17.931Z,78.36
2022-12-11T04:05:47.587Z,78.15
2022-12-11T04:08:15.177Z,78.20
2022-12-11T04:10:42.494Z,78.50
2022-12-11T04:13:10.364Z,79.05
2022-12-11T04:15:38.111Z,78.68
2022-12-11T04:18:23.994Z,78.57
2022-12-11T04:21:12.514Z,78.32
2022-12-11T04:23:58.170Z,78.43
2022-12-11T04:26:25.833Z,78.28
2022-12-11T04:28:52.716Z,78.29
2022-12-11T04:31:22.409Z,78.44
2022-12-11T04:33:49.536Z,78.54
2022-12-11T04:36:16.898Z,78.50
2022-12-11T04:38:43.784Z,78.22
2022-12-11T04:41:13.693Z,78.42
2022-12-11T04:43:40.912Z,78.41
2022-12-11T04:46:14.992Z,78.30
2022-12-11T04:48:42.631Z,78.66
2022-12-11T04:51:10.447Z,78.46
2022-12-11T04:53:38.159Z,78.28
2022-12-11T04:56:07.371Z,78.37
2022-12-11T04:58:36.022Z,78.48
2022-12-11T05:01:22.775Z,78.29
2022-12-11T05:03:50.468Z,78.39
2022-12-11T05:06:17.533Z,78.66
2022-12-11T05:08:45.465Z,78.88
2022-12-11T05:11:15.042Z,78.93
2022-12-11T05:13:42.625Z,78.83
2022-12-11T05:16:11.631Z,78.90
2022-12-11T05:18:38.862Z,78.56
2022-12-11T05:21:08.047Z,78.43
2022-12-11T05:23:35.485Z,78.45
2022-12-11T05:26:15.230Z,78.89
2022-12-11T05:28:42.379Z,78.88
2022-12-11T05:31:14.105Z,78.45
2022-12-11T05:33:41.899Z,78.87
2022-12-11T05:36:09.580Z,78.54
2022-12-11T05:38:36.452Z,78.86
2022-12-11T05:41:06.284Z,78.91
2022-12-11T05:43:34.803Z,78.45
2022-12-11T05:46:10.549Z,78.70
2022-12-11T05:48:38.502Z,78.91
2022-12-11T05:51:06.799Z,79.15
2022-12-11T05:53:33.851Z,78.97
2022-12-11T05:56:08.649Z,79.21
2022-12-11T05:58:35.992Z,79.58
2022-12-11T06:01:07.041Z,79.35
2022-12-11T06:03:34.159Z,79.48
2022-12-11T06:06:05.349Z,79.62
2022-12-11T06:08:33.057Z,79.44
2022-12-11T06:11:00.217Z,79.68
2022-12-11T06:13:27.339Z,80.08
2022-12-11T06:15:54.430Z,80.01
2022-12-11T06:18:21.703Z,80.13
2022-12-11T06:20:48.840Z,80.13
2022-12-11T06:23:15.795Z,80.25
2022-12-11T06:25:42.762Z,79.90
2022-12-11T06:28:09.785Z,80.27
2022-12-11T06:30:38.594Z,80.00
2022-12-11T06:33:06.968Z,80.18
2022-12-11T06:35:38.725Z,80.06
2022-12-11T06:38:09.151Z,80.61
2022-12-11T06:40:36.243Z,79.98
2022-12-11T06:43:04.095Z,80.18
2022-12-11T06:45:31.252Z,80.18
2022-12-11T06:47:59.180Z,80.12
2022-12-11T06:50:26.488Z,80.57
2022-12-11T06:52:53.475Z,80.30
2022-12-11T06:55:20.504Z,80.47
2022-12-11T06:57:47.447Z,80.47
2022-12-11T07:00:15.173Z,80.68
2022-12-11T07:02:42.175Z,80.29
2022-12-11T07:05:09.729Z,80.39
2022-12-11T07:07:36.901Z,80.42
2022-12-11T07:10:08.227Z,80.63
2022-12-11T07:12:35.705Z,80.46
2022-12-11T07:15:02.981Z,80.42
2022-12-11T07:17:30.424Z,80.46
2022-12-11T07:19:57.677Z,80.66
2022-12-11T07:22:24.761Z,80.49
2022-12-11T07:24:51.712Z,80.34
2022-12-11T07:27:19.024Z,80.51
2022-12-11T07:29:46.247Z,80.55
2022-12-11T07:32:13.382Z,80.60
2022-12-11T07:34:40.691Z,80.58
2022-12-11T07:37:08.060Z,80.58
2022-12-11T07:39:35.220Z,80.38
2022-12-11T07:42:02.412Z,80.40
2022-12-11T07:44:30.021Z,80.49
2022-12-11T07:46:58.056Z,80.50
2022-12-11T07:49:24.980Z,80.52
2022-12-11T07:51:52.079Z,80.66
2022-12-11T07:54:19.083Z,80.50
2022-12-11T07:56:53.181Z,80.45
2022-12-11T07:59:22.666Z,80.64
2022-12-11T08:01:52.409Z,80.46
2022-12-11T08:04:20.321Z,80.40
2022-12-11T08:06:49.379Z,80.44
2022-12-11T08:09:21.112Z,80.70
2022-12-11T08:11:54.072Z,80.53
2022-12-11T08:14:22.508Z,80.56
2022-12-11T08:16:50.738Z,80.26
2022-12-11T08:19:18.289Z,80.40
2022-12-11T08:21:45.491Z,80.40
2022-12-11T08:24:12.590Z,80.42
2022-12-11T08:26:40.813Z,80.28
2022-12-11T08:29:08.422Z,80.26
2022-12-11T08:31:35.577Z,80.29
2022-12-11T08:34:02.782Z,80.43
2022-12-11T08:36:29.858Z,80.31
2022-12-11T08:38:57.310Z,80.24
2022-12-11T08:41:29.511Z,80.24
2022-12-11T08:43:58.182Z,80.23
2022-12-11T08:46:36.737Z,80.29
2022-12-11T08:49:16.991Z,80.08
2022-12-11T08:51:44.662Z,80.41
2022-12-11T09:01:55.723Z,79.90
2022-12-11T09:04:23.255Z,79.97
2022-12-11T09:06:50.372Z,80.12
2022-12-11T09:09:17.361Z,79.95
2022-12-11T09:11:44.336Z,79.91
2022-12-11T09:14:11.293Z,80.10
2022-12-11T09:16:40.820Z,80.20
2022-12-11T09:19:12.653Z,80.22
2022-12-11T09:21:39.903Z,80.26
2022-12-11T09:24:07.193Z,80.12
2022-12-11T09:26:34.203Z,80.32
2022-12-11T09:29:03.814Z,80.67
2022-12-11T09:31:33.263Z,80.69
2022-12-11T09:34:05.989Z,80.58
2022-12-11T09:36:33.354Z,81.12
2022-12-11T09:39:02.128Z,80.70
2022-12-11T09:41:50.735Z,80.76
2022-12-11T09:44:34.935Z,80.69
2022-12-11T09:47:02.058Z,80.76
2022-12-11T09:49:39.358Z,80.73
2022-12-11T09:52:19.022Z,80.75
2022-12-11T09:55:00.943Z,81.04
2022-12-11T09:57:30.526Z,80.91
2022-12-11T10:00:08.943Z,80.92
2022-12-11T10:02:58.398Z,80.98
2022-12-11T10:06:10.291Z,81.03
2022-12-11T10:08:45.538Z,81.35
2022-12-11T10:11:28.322Z,81.25
2022-12-11T10:14:20.434Z,81.53
2022-12-11T10:16:47.587Z,81.26
2022-12-11T10:19:23.306Z,81.30
2022-12-11T10:21:51.553Z,80.98
2022-12-11T10:25:10.015Z,81.52
2022-12-11T10:27:31.868Z,81.19
2022-12-11T10:30:20.574Z,81.20
2022-12-11T10:33:04.375Z,81.43
2022-12-11T10:35:51.712Z,81.42
2022-12-11T10:38:27.600Z,81.52
2022-12-11T10:41:21.354Z,81.21
2022-12-11T10:43:51.864Z,81.25
2022-12-11T10:46:24.819Z,81.53
2022-12-11T10:48:59.449Z,81.54
2022-12-11T10:51:32.428Z,81.35
2022-12-11T10:54:07.324Z,81.40
2022-12-11T10:56:36.281Z,81.57
2022-12-11T10:59:03.776Z,81.49
2022-12-11T11:01:32.397Z,81.35
2022-12-11T11:04:23.114Z,81.35
2022-12-11T11:07:02.027Z,81.43
2022-12-11T11:09:35.665Z,81.50
2022-12-11T11:12:07.798Z,81.48
2022-12-11T11:14:35.151Z,81.25
2022-12-11T11:17:02.182Z,81.49
2022-12-11T11:19:34.160Z,81.30
2022-12-11T11:22:07.059Z,81.41
2022-12-11T11:24:41.180Z,81.45
2022-12-11T11:27:14.320Z,81.36
2022-12-11T11:29:41.841Z,81.42
2022-12-11T11:32:24.043Z,81.24
2022-12-11T11:34:51.180Z,81.19
2022-12-11T11:37:36.403Z,81.06
2022-12-11T11:40:15.205Z,81.18
2022-12-11T11:43:38.200Z,81.21
2022-12-11T11:46:22.374Z,80.85
2022-12-11T11:49:12.580Z,80.75
2022-12-11T11:52:04.022Z,80.94
2022-12-11T11:54:36.933Z,80.57
2022-12-11T11:57:29.862Z,80.29
2022-12-11T12:00:09.728Z,80.50
2022-12-11T12:02:41.051Z,80.43
2022-12-11T12:05:13.383Z,80.37
2022-12-11T12:08:00.172Z,80.23
2022-12-11T12:10:48.397Z,80.20
2022-12-11T12:14:17.603Z,80.25
2022-12-11T12:17:08.011Z,80.33
2022-12-11T12:19:59.875Z,80.21
2022-12-11T12:22:51.604Z,80.10
2022-12-11T12:25:26.215Z,80.29
2022-12-11T12:27:58.611Z,80.05
2022-12-11T12:30:27.315Z,79.80
2022-12-11T12:33:07.710Z,79.96
2022-12-11T12:35:54.668Z,79.73
2022-12-11T12:38:38.175Z,79.95
2022-12-11T12:41:25.260Z,79.74
2022-12-11T12:44:00.820Z,79.55
2022-12-11T12:46:34.314Z,79.70
2022-12-11T12:49:01.884Z,79.69
2022-12-11T12:51:29.172Z,79.63
2022-12-11T12:53:59.776Z,79.55
2022-12-11T12:56:28.285Z,79.75
2022-12-11T12:58:55.316Z,79.42
2022-12-11T13:01:24.689Z,79.52
2022-12-11T13:04:01.751Z,79.51
2022-12-11T13:06:36.213Z,79.38
2022-12-11T13:09:23.847Z,79.51
2022-12-11T13:11:57.900Z,79.28
2022-12-11T13:14:28.598Z,79.30
2022-12-11T13:17:20.537Z,79.42
2022-12-11T13:19:49.661Z,79.14
2022-12-11T13:22:16.575Z,79.23
2022-12-11T13:24:50.575Z,79.05
2022-12-11T13:27:38.454Z,78.97
2022-12-11T13:30:26.238Z,78.79
2022-12-11T13:33:07.034Z,79.17
2022-12-11T13:35:35.460Z,79.15
2022-12-11T13:38:13.263Z,78.94
2022-12-11T13:40:43.226Z,78.89
2022-12-11T13:43:22.632Z,78.74
2022-12-11T13:45:55.352Z,78.63
2022-12-11T13:48:34.006Z,78.83
2022-12-11T13:51:02.101Z,78.71
2022-12-11T13:53:29.619Z,78.71
2022-12-11T13:55:57.995Z,78.56
2022-12-11T13:58:25.108Z,78.78
2022-12-11T14:01:05.039Z,78.74
2022-12-11T14:03:32.536Z,78.60
2022-12-11T14:06:00.569Z,78.57
2022-12-11T14:08:43.246Z,78.66
2022-12-11T14:11:20.944Z,78.45
2022-12-11T14:13:48.094Z,78.47
2022-12-11T14:16:21.199Z,78.57
2022-12-11T14:18:50.435Z,78.42
2022-12-11T14:21:23.050Z,78.43
2022-12-11T14:23:55.787Z,78.13
2022-12-11T14:26:31.741Z,78.01
2022-12-11T14:28:58.786Z,78.07
2022-12-11T14:31:37.363Z,78.13
2022-12-11T14:34:07.663Z,78.20
2022-12-11T14:36:35.610Z,78.10
2022-12-11T14:39:07.238Z,78.03
2022-12-11T14:41:45.179Z,78.04
2022-12-11T14:44:15.932Z,78.02
2022-12-11T14:46:55.063Z,78.03
2022-12-11T14:49:47.567Z,78.15
2022-12-11T14:52:20.730Z,78.03
2022-12-11T14:54:54.412Z,77.92
2022-12-11T14:57:28.124Z,78.00
2022-12-11T14:59:55.530Z,77.77
2022-12-11T15:02:35.070Z,78.20
2022-12-11T15:05:22.337Z,77.88
2022-12-11T15:08:00.952Z,78.00
2022-12-11T15:10:57.316Z,78.03
2022-12-11T15:13:24.731Z,77.98
2022-12-11T15:15:52.225Z,78.07
2022-12-11T15:18:24.501Z,78.11
2022-12-11T15:20:53.670Z,77.97
2022-12-11T15:23:20.819Z,77.91
2022-12-11T15:25:59.085Z,78.03
2022-12-11T15:28:37.473Z,78.09
2022-12-11T15:31:07.707Z,77.92
2022-12-11T15:33:46.130Z,77.89
2022-12-11T15:36:31.493Z,78.00
2022-12-11T15:38:58.763Z,78.11
2022-12-11T15:41:25.978Z,78.07
2022-12-11T15:43:58.556Z,78.00
2022-12-11T15:46:26.174Z,78.14
2022-12-11T15:48:53.378Z,77.92
2022-12-11T15:51:20.459Z,77.86
2022-12-11T15:53:47.652Z,77.86
2022-12-11T15:56:18.160Z,77.91
2022-12-11T15:58:47.339Z,77.99
2022-12-11T16:01:14.692Z,77.85
2022-12-11T16:03:42.162Z,77.77
2022-12-11T16:06:12.731Z,77.88
2022-12-11T16:08:39.803Z,77.82
2022-12-11T16:11:07.013Z,77.51
2022-12-11T16:13:34.219Z,77.58
2022-12-11T16:16:01.728Z,77.74
2022-12-11T16:18:28.964Z,77.08
2022-12-11T16:20:56.336Z,77.54
2022-12-11T16:23:25.471Z,77.44
2022-12-11T16:25:54.189Z,77.38
2022-12-11T16:28:21.353Z,77.23
2022-12-11T16:30:48.826Z,77.35
2022-12-11T16:33:15.995Z,77.31
2022-12-11T16:35:43.220Z,77.18
2022-12-11T16:38:11.143Z,77.18
2022-12-11T16:40:38.614Z,77.13
2022-12-11T16:43:06.094Z,77.09
2022-12-11T16:45:34.015Z,77.18
2022-12-11T16:48:03.874Z,76.90
2022-12-11T16:50:32.297Z,76.87
2022-12-11T16:53:00.273Z,76.67
2022-12-11T16:55:27.256Z,76.66
2022-12-11T16:57:55.336Z,76.60
2022-12-11T17:00:22.698Z,76.89
2022-12-11T17:02:50.067Z,76.83
2022-12-11T17:05:17.685Z,76.66
2022-12-11T17:07:45.254Z,76.59
2022-12-11T17:10:12.348Z,76.47
2022-12-11T17:12:39.560Z,76.55
2022-12-11T17:15:07.399Z,76.24
2022-12-11T17:17:34.706Z,76.35
2022-12-11T17:20:02.157Z,76.18
2022-12-11T17:22:29.132Z,76.38
2022-12-11T17:24:56.260Z,76.09
2022-12-11T17:27:23.295Z,76.15
2022-12-11T17:29:51.803Z,76.08
2022-12-11T17:32:20.098Z,76.03
2022-12-11T17:34:49.707Z,75.75
2022-12-11T17:37:18.011Z,75.83
2022-12-11T17:39:45.289Z,75.70
2022-12-11T17:42:12.298Z,75.84
2022-12-11T17:44:39.394Z,75.47
2022-12-11T17:47:11.107Z,75.70
2022-12-11T17:49:40.607Z,75.70
2022-12-11T17:52:08.023Z,75.68
2022-12-11T17:54:35.272Z,75.49
2022-12-11T17:57:02.670Z,75.39
2022-12-11T17:59:29.565Z,75.57
2022-12-11T18:01:56.564Z,75.35
2022-12-11T18:04:24.131Z,75.35
2022-12-11T18:06:51.643Z,75.39
2022-12-11T18:09:19.141Z,75.47
2022-12-11T18:11:46.410Z,75.31
2022-12-11T18:14:17.075Z,75.13
2022-12-11T18:16:45.015Z,75.15
2022-12-11T18:19:12.173Z,75.07
2022-12-11T18:21:42.930Z,75.04
2022-12-11T18:24:10.701Z,75.04
2022-12-11T18:26:38.208Z,75.10
2022-12-11T18:29:05.550Z,74.74
2022-12-11T18:31:35.360Z,74.72
2022-12-11T18:34:06.496Z,74.72
2022-12-11T18:36:35.000Z,74.89
2022-12-11T18:39:01.925Z,74.45
2022-12-11T18:41:32.243Z,74.33
2022-12-11T18:44:09.288Z,74.42
2022-12-11T18:46:37.177Z,74.21
2022-12-11T18:49:04.368Z,74.60
2022-12-11T18:51:31.435Z,74.28
2022-12-11T18:53:58.803Z,74.07
2022-12-11T18:56:25.752Z,74.13
2022-12-11T18:58:52.849Z,74.29
2022-12-11T19:01:22.850Z,74.30
2022-12-11T19:03:51.293Z,74.40
2022-12-11T19:06:20.841Z,74.26
2022-12-11T19:08:48.271Z,74.11
2022-12-11T19:11:20.624Z,74.27
2022-12-11T19:13:48.610Z,74.08
2022-12-11T19:16:24.390Z,74.37
2022-12-11T19:18:51.808Z,73.77
2022-12-11T19:21:19.599Z,73.95
2022-12-11T19:23:47.081Z,74.15
2022-12-11T19:26:17.490Z,73.99
2022-12-11T19:28:44.891Z,73.73
2022-12-11T19:31:13.921Z,73.69
2022-12-11T19:33:41.850Z,73.97
2022-12-11T19:36:13.775Z,73.85
2022-12-11T19:38:42.286Z,73.64
2022-12-11T19:41:21.753Z,73.83
2022-12-11T19:43:50.114Z,73.71
2022-12-11T19:46:18.041Z,73.53
2022-12-11T19:48:45.219Z,73.43
2022-12-11T19:51:18.410Z,73.34
2022-12-11T19:53:46.815Z,73.63
2022-12-11T19:56:14.892Z,73.40
2022-12-11T19:58:42.379Z,73.41
2022-12-11T20:01:10.271Z,73.61
2022-12-11T20:03:38.138Z,73.22
2022-12-11T20:06:08.228Z,73.46
2022-12-11T20:08:44.539Z,73.22
2022-12-11T20:11:17.594Z,72.99
2022-12-11T20:13:46.946Z,73.38
2022-12-11T20:16:14.705Z,73.17
2022-12-11T20:18:42.719Z,73.37
2022-12-11T20:21:13.110Z,73.33
2022-12-11T20:23:42.243Z,73.34
2022-12-11T20:26:22.514Z,73.37
2022-12-11T20:28:53.526Z,73.15
2022-12-11T20:31:26.114Z,73.38
2022-12-11T20:33:54.378Z,73.41
2022-12-11T20:36:23.260Z,73.05
2022-12-11T20:38:51.083Z,73.21
2022-12-11T20:41:21.421Z,73.37
2022-12-11T20:43:49.610Z,73.30
2022-12-11T20:46:18.183Z,73.21
2022-12-11T20:48:46.015Z,73.12
2022-12-11T20:51:20.869Z,73.00
2022-12-11T20:53:57.939Z,73.24
2022-12-11T20:56:29.610Z,73.03
2022-12-11T20:58:58.152Z,73.13
2022-12-11T21:01:28.010Z,73.28
2022-12-11T21:03:55.648Z,73.26
2022-12-11T21:06:31.909Z,72.97
2022-12-11T21:09:00.995Z,72.82
2022-12-11T21:11:29.321Z,73.11
2022-12-11T21:13:56.870Z,72.97
2022-12-11T21:16:24.631Z,72.99
2022-12-11T21:18:52.139Z,73.41
2022-12-11T21:21:20.005Z,73.51
2022-12-11T21:23:47.068Z,72.91
2022-12-11T21:26:14.399Z,73.02
2022-12-11T21:28:41.339Z,73.36
2022-12-11T21:31:11.865Z,73.09
2022-12-11T21:33:38.986Z,73.19
2022-12-11T21:36:07.088Z,72.83
2022-12-11T21:38:34.177Z,72.98
2022-12-11T21:41:09.475Z,72.80
2022-12-11T21:43:40.024Z,73.38
2022-12-11T21:46:16.970Z,73.38
2022-12-11T21:48:44.535Z,72.97
2022-12-11T21:51:24.330Z,72.81
2022-12-11T21:53:52.101Z,73.12
2022-12-11T21:56:22.740Z,73.15
2022-12-11T21:58:51.989Z,73.04
2022-12-11T22:01:23.640Z,73.01
2022-12-11T22:03:52.469Z,73.02
2022-12-11T22:06:19.631Z,73.04
2022-12-11T22:08:49.230Z,73.22
2022-12-11T22:11:21.979Z,73.08
2022-12-11T22:13:49.054Z,72.97
2022-12-11T22:16:16.071Z,72.97
2022-12-11T22:18:43.153Z,73.26
2022-12-11T22:21:10.134Z,73.28
2022-12-11T22:23:41.101Z,72.72
2022-12-11T22:26:09.130Z,73.25
2022-12-11T22:28:36.004Z,73.09
2022-12-11T22:31:04.788Z,72.76
2022-12-11T22:33:31.747Z,73.06
2022-12-11T22:35:59.577Z,72.63
2022-12-11T22:38:26.810Z,72.98
2022-12-11T22:40:54.610Z,72.94
2022-12-11T22:43:21.820Z,72.87
2022-12-11T22:45:49.451Z,72.63
2022-12-11T22:48:16.530Z,72.80
2022-12-11T22:50:44.407Z,72.55
2022-12-11T22:53:11.761Z,72.82
2022-12-11T22:55:40.027Z,72.72
2022-12-11T22:58:07.719Z,72.66
2022-12-11T23:00:35.020Z,72.94
2022-12-11T23:03:02.530Z,72.96
2022-12-11T23:05:29.951Z,72.95
2022-12-11T23:07:57.150Z,72.66
2022-12-11T23:10:24.266Z,72.92
2022-12-11T23:12:51.252Z,72.77
2022-12-11T23:15:18.821Z,72.80
2022-12-11T23:17:45.760Z,73.00
2022-12-11T23:20:12.796Z,72.81
2022-12-11T23:22:39.953Z,72.92
2022-12-11T23:25:07.429Z,72.84
2022-12-11T23:27:34.414Z,72.81
2022-12-11T23:30:01.439Z,72.72
2022-12-11T23:32:28.386Z,73.03
2022-12-11T23:34:55.303Z,72.99
2022-12-11T23:37:22.194Z,72.66
2022-12-11T23:39:49.176Z,72.97
2022-12-11T23:42:16.135Z,73.04
2022-12-11T23:44:43.276Z,72.89
2022-12-11T23:47:10.207Z,73.21
2022-12-11T23:49:37.322Z,72.89
2022-12-11T23:52:04.500Z,72.98
2022-12-11T23:54:31.775Z,72.73
2022-12-11T23:56:58.703Z,73.02
2022-12-11T23:59:25.783Z,73.30
